Time;durP1;ratioP1;P1;durP2;ratioP2;P2;SDS_P1;SDS_P2;PMS_P1;PMS_P2;Temp;Humidity;BMP_temperature;BMP_pressure;BME280_temperature;BME280_humidity;BME280_pressure;Samples;Min_cycle;Max_cycle;Signal;HPM_P1;HPM_P2
2022/04/13 15:21:05;;;;;;;3.62;1.00;;;;;;;6.70;67.15;100821.61;1943205;73;28107;-60
2022/04/13 15:23:37;;;;;;;1.05;0.60;;;;;;;6.55;68.32;100808.41;1915050;75;21541;-61
2022/04/13 15:26:05;;;;;;;3.52;1.35;;;;;;;6.48;68.87;100825.12;1917708;75;21032;-60
2022/04/13 15:28:34;;;;;;;1.47;1.10;;;;;;;6.48;69.14;100823.81;1918120;75;21139;-60
2022/04/13 15:31:04;;;;;;;4.00;1.25;;;;;;;6.45;69.63;100821.25;1918191;75;21035;-60
2022/04/13 15:33:33;;;;;;;1.02;0.60;;;;;;;6.46;69.62;100811.67;1918185;75;21043;-60
2022/04/13 15:36:02;;;;;;;0.40;0.40;;;;;;;6.46;69.55;100820.83;1918096;75;21442;-62
2022/04/13 15:38:31;;;;;;;1.00;0.50;;;;;;;6.48;69.10;100822.51;1915291;75;21062;-60
2022/04/13 15:41:00;;;;;;;0.85;0.80;;;;;;;6.46;69.52;100799.45;1915257;75;21561;-60
2022/04/13 15:43:28;;;;;;;3.12;1.20;;;;;;;6.46;69.50;100819.52;1915188;75;21145;-61
2022/04/13 15:45:57;;;;;;;0.72;0.62;;;;;;;6.44;69.98;100814.31;1915365;75;21016;-60
2022/04/13 15:48:25;;;;;;;0.68;0.60;;;;;;;6.37;70.63;100817.95;1915263;75;21051;-60
2022/04/13 15:50:54;;;;;;;1.02;0.60;;;;;;;6.35;70.51;100813.20;1915347;75;21050;-59
2022/04/13 15:53:24;;;;;;;1.40;0.82;;;;;;;6.34;70.55;100820.61;1915427;75;21015;-60
2022/04/13 15:55:52;;;;;;;1.40;0.60;;;;;;;6.34;70.53;100818.89;1915158;75;21051;-60
2022/04/13 15:58:21;;;;;;;0.93;0.80;;;;;;;6.34;70.46;100820.61;1915204;75;21132;-60
2022/04/13 16:00:50;;;;;;;0.60;0.60;;;;;;;6.34;70.41;100832.38;1915357;75;21062;-60
2022/04/13 16:03:18;;;;;;;0.78;0.68;;;;;;;6.30;70.53;100822.43;1915148;75;21046;-62
2022/04/13 16:05:47;;;;;;;1.22;0.90;;;;;;;6.27;70.94;100801.59;1915237;75;21105;-60
2022/04/13 16:08:18;;;;;;;1.12;0.80;;;;;;;6.27;71.18;100817.70;1915216;75;21035;-61
2022/04/13 16:10:47;;;;;;;1.22;0.60;;;;;;;6.26;71.01;100809.01;1915243;75;21117;-61
2022/04/13 16:13:16;;;;;;;0.50;0.50;;;;;;;6.21;71.36;100813.46;1915212;75;21540;-61
2022/04/13 16:15:45;;;;;;;0.72;0.70;;;;;;;6.19;71.32;100810.02;1915212;75;21007;-61
2022/04/13 16:18:13;;;;;;;1.40;0.82;;;;;;;6.17;71.43;100821.81;1915324;75;21050;-61
2022/04/13 16:20:42;;;;;;;0.90;0.60;;;;;;;6.16;71.48;100820.10;1908465;75;21044;-61
2022/04/13 16:23:12;;;;;;;0.70;0.50;;;;;;;6.14;71.68;100824.92;1902578;75;21068;-61
2022/04/13 16:25:41;;;;;;;0.75;0.75;;;;;;;6.12;71.52;100821.06;1902616;75;21109;-61
2022/04/13 16:28:10;;;;;;;0.62;0.62;;;;;;;6.11;71.61;100808.87;1902489;75;21589;-61
2022/04/13 16:30:40;;;;;;;0.80;0.80;;;;;;;6.11;71.92;100803.64;1902363;75;21507;-60
2022/04/13 16:33:11;;;;;;;0.40;0.40;;;;;;;6.06;72.28;100817.23;1902038;75;21024;-61
2022/04/13 16:35:43;;;;;;;0.80;0.62;;;;;;;6.00;72.16;100801.68;1902020;75;21040;-61
2022/04/13 16:38:13;;;;;;;0.50;0.50;;;;;;;5.98;72.27;100800.40;1902277;75;21036;-61
2022/04/13 16:40:41;;;;;;;0.40;0.40;;;;;;;5.90;72.05;100785.71;1901772;75;21142;-60
2022/04/13 16:43:10;;;;;;;1.60;0.85;;;;;;;5.99;72.28;100808.67;1901945;75;21035;-60
2022/04/13 16:45:41;;;;;;;0.33;0.33;;;;;;;6.01;72.41;100789.01;1901979;75;21039;-60
2022/04/13 16:48:09;;;;;;;0.53;0.47;;;;;;;5.95;72.87;100822.66;1901962;75;21044;-60
2022/04/13 16:50:38;;;;;;;2.02;0.95;;;;;;;5.94;72.75;100815.70;1902132;75;21043;-60
2022/04/13 16:53:09;;;;;;;1.00;0.60;;;;;;;5.93;73.22;100814.41;1901925;75;21105;-62
2022/04/13 16:55:37;;;;;;;2.05;0.88;;;;;;;5.90;73.21;100806.62;1901845;75;21044;-60
2022/04/13 16:58:08;;;;;;;1.02;0.68;;;;;;;5.86;73.60;100815.41;1902168;75;21471;-60
2022/04/13 17:00:37;;;;;;;0.47;0.47;;;;;;;5.83;73.62;100823.30;1901934;75;21475;-60
2022/04/13 17:03:06;;;;;;;0.62;0.60;;;;;;;5.79;73.57;100815.53;1901918;75;21133;-60
2022/04/13 17:05:35;;;;;;;1.17;1.05;;;;;;;5.78;73.73;100817.72;1901869;75;21523;-61
2022/04/13 17:08:08;;;;;;;2.00;0.80;;;;;;;5.79;74.01;100815.53;1901875;75;21598;-60
2022/04/13 17:10:37;;;;;;;1.32;0.55;;;;;;;5.82;74.09;100815.06;1902139;75;21039;-60
2022/04/13 17:13:06;;;;;;;0.82;0.60;;;;;;;5.76;74.44;100828.64;1901959;75;21114;-60
2022/04/13 17:15:35;;;;;;;0.70;0.55;;;;;;;5.75;74.28;100821.68;1902030;75;21101;-61
2022/04/13 17:18:04;;;;;;;1.02;0.70;;;;;;;5.76;74.11;100829.95;1901889;75;21079;-62
2022/04/13 17:20:33;;;;;;;0.72;0.50;;;;;;;5.72;74.49;100824.37;1901837;75;21624;-61
2022/04/13 17:23:02;;;;;;;0.68;0.68;;;;;;;5.68;74.54;100830.55;1902014;75;21509;-62
2022/04/13 17:25:31;;;;;;;0.70;0.70;;;;;;;5.64;74.64;100817.09;1901973;75;21075;-62
2022/04/13 17:27:59;;;;;;;0.40;0.40;;;;;;;5.63;74.38;100834.13;1901965;75;21012;-62
2022/04/13 17:30:28;;;;;;;0.37;0.37;;;;;;;5.61;74.41;100832.84;1901882;75;21032;-61
2022/04/13 17:32:56;;;;;;;2.22;0.72;;;;;;;5.61;74.51;100819.78;1901727;75;21584;-61
2022/04/13 17:35:25;;;;;;;0.90;0.85;;;;;;;5.60;74.60;100835.02;1901897;75;21004;-61
2022/04/13 17:37:54;;;;;;;0.42;0.42;;;;;;;5.57;74.71;100835.95;1901905;75;21052;-61
2022/04/13 17:40:22;;;;;;;0.47;0.45;;;;;;;5.58;74.83;100826.35;1902098;75;21117;-61
2022/04/13 17:42:52;;;;;;;0.60;0.50;;;;;;;5.54;74.80;100832.52;1901985;75;21037;-61
2022/04/13 17:45:22;;;;;;;0.35;0.35;;;;;;;5.56;74.86;100842.50;1901936;75;21039;-61
2022/04/13 17:47:51;;;;;;;2.08;1.00;;;;;;;5.51;74.74;100836.03;1902025;75;21152;-61
2022/04/13 17:50:20;;;;;;;4.55;1.07;;;;;;;5.50;74.78;100824.33;1901915;75;21161;-61
2022/04/13 17:52:49;;;;;;;0.50;0.50;;;;;;;5.49;74.82;100813.45;1901935;75;21588;-62
2022/04/13 17:55:18;;;;;;;1.82;0.98;;;;;;;5.49;74.78;100818.67;1901902;75;21056;-61
2022/04/13 17:57:46;;;;;;;3.27;0.80;;;;;;;5.49;75.02;100813.00;1901831;75;21036;-61
2022/04/13 18:00:17;;;;;;;0.42;0.42;;;;;;;5.50;75.13;100800.82;1901889;75;21004;-61
2022/04/13 18:02:45;;;;;;;0.65;0.57;;;;;;;5.49;75.24;100810.84;1901869;75;21100;-62
2022/04/13 18:05:15;;;;;;;1.10;0.90;;;;;;;5.47;75.25;100803.02;1901843;75;21518;-61
2022/04/13 18:07:44;;;;;;;0.57;0.57;;;;;;;5.51;75.22;100809.06;1901886;75;21154;-62
2022/04/13 18:10:13;;;;;;;0.68;0.68;;;;;;;5.54;75.10;100792.04;1901964;75;21039;-62
2022/04/13 18:12:42;;;;;;;1.55;0.45;;;;;;;5.57;75.00;100801.11;1901901;75;21490;-61
2022/04/13 18:15:12;;;;;;;2.35;0.82;;;;;;;5.60;74.87;100809.75;1901893;75;21079;-61
2022/04/13 18:17:42;;;;;;;3.60;0.75;;;;;;;5.62;74.72;100812.34;1902022;75;21075;-61
2022/04/13 18:20:12;;;;;;;1.20;1.15;;;;;;;5.61;74.83;100800.19;1901933;75;21611;-61
2022/04/13 18:22:41;;;;;;;2.67;0.72;;;;;;;5.59;74.86;100806.73;1910527;75;21581;-62
2022/04/13 18:25:10;;;;;;;1.02;0.55;;;;;;;5.60;75.13;100801.06;1914523;75;21078;-61
2022/04/13 18:27:39;;;;;;;0.45;0.45;;;;;;;5.60;75.10;100785.39;1914667;75;21016;-61
2022/04/13 18:30:10;;;;;;;0.85;0.60;;;;;;;5.60;74.98;100794.08;1914572;75;21459;-61
2022/04/13 18:32:39;;;;;;;1.05;0.57;;;;;;;5.58;75.09;100789.78;1914665;75;21098;-61
2022/04/13 18:35:10;;;;;;;1.35;0.50;;;;;;;5.55;75.56;100795.05;1914476;75;21407;-62
2022/04/13 18:37:39;;;;;;;0.80;0.53;;;;;;;5.58;75.36;100792.39;1914620;75;22337;-61
2022/04/13 18:40:09;;;;;;;0.98;0.70;;;;;;;5.60;75.35;100773.64;1914745;75;21481;-61
2022/04/13 18:42:41;;;;;;;0.75;0.75;;;;;;;5.62;75.33;100794.05;1914518;75;21039;-61
2022/04/13 18:45:10;;;;;;;0.60;0.60;;;;;;;5.63;75.49;100799.71;1914519;75;21023;-61
2022/04/13 18:47:38;;;;;;;0.50;0.50;;;;;;;5.63;75.40;100798.41;1914474;75;21572;-62
2022/04/13 18:50:08;;;;;;;3.33;0.62;;;;;;;5.63;75.40;100757.92;1914466;75;21120;-61
2022/04/13 18:52:37;;;;;;;3.65;0.42;;;;;;;5.65;75.31;100801.00;1914611;75;21015;-61
2022/04/13 18:55:06;;;;;;;0.70;0.70;;;;;;;5.65;75.21;100786.63;1914493;75;21039;-61
2022/04/13 18:57:35;;;;;;;2.27;0.60;;;;;;;5.63;75.14;100795.80;1914560;75;21027;-61
2022/04/13 19:00:06;;;;;;;0.72;0.50;;;;;;;5.61;75.05;100769.69;1914535;75;21015;-61
2022/04/13 19:02:36;;;;;;;0.85;0.85;;;;;;;5.59;75.07;100820.25;1914431;75;21039;-61
2022/04/13 19:05:06;;;;;;;1.12;0.55;;;;;;;5.54;74.96;100780.28;1914489;75;21059;-61
2022/04/13 19:07:35;;;;;;;0.53;0.53;;;;;;;5.50;75.05;100773.40;1914599;75;21109;-61
2022/04/13 19:10:05;;;;;;;1.70;0.80;;;;;;;5.49;75.34;100778.19;1914508;75;21040;-61
2022/04/13 19:12:35;;;;;;;1.98;0.70;;;;;;;5.46;75.39;100781.73;1914628;75;21125;-61
2022/04/13 19:15:04;;;;;;;1.05;0.70;;;;;;;5.39;75.84;100777.05;1914441;75;21498;-61
2022/04/13 19:17:32;;;;;;;0.33;0.33;;;;;;;5.38;75.89;100784.45;1914583;75;21112;-62
2022/04/13 19:20:02;;;;;;;0.30;0.30;;;;;;;5.39;75.84;100782.27;1914468;75;21058;-62
2022/04/13 19:22:31;;;;;;;0.98;0.98;;;;;;;5.41;75.96;100770.04;1910494;75;21075;-61
2022/04/13 19:25:01;;;;;;;0.88;0.88;;;;;;;5.41;75.91;100780.48;1902063;75;21110;-61
2022/04/13 19:27:31;;;;;;;0.85;0.50;;;;;;;5.42;76.22;100773.50;1901850;75;21032;-61
2022/04/13 19:30:00;;;;;;;1.70;0.50;;;;;;;5.42;76.39;100752.61;1901829;75;21004;-61
2022/04/13 19:32:29;;;;;;;0.82;0.62;;;;;;;5.41;76.17;100765.27;1901963;75;21032;-61
2022/04/13 19:34:57;;;;;;;2.12;0.72;;;;;;;5.39;76.45;100769.21;1901869;75;21036;-61
2022/04/13 19:37:26;;;;;;;0.33;0.33;;;;;;;5.35;76.75;100764.08;1901973;75;21032;-61
2022/04/13 19:39:55;;;;;;;0.45;0.45;;;;;;;5.33;76.84;100737.11;1901726;75;21110;-61
2022/04/13 19:42:26;;;;;;;0.55;0.50;;;;;;;5.30;76.86;100727.59;1901939;75;21028;-60
2022/04/13 19:44:59;;;;;;;1.65;0.53;;;;;;;5.28;76.95;100743.73;1901893;75;21121;-60
2022/04/13 19:47:24;;;;;;;0.72;0.50;;;;;;;5.26;77.06;100719.41;1900686;75;21109;-61
2022/04/13 19:49:52;;;;;;;0.65;0.65;;;;;;;5.21;77.11;100744.72;1901959;75;21043;-61
2022/04/13 19:52:22;;;;;;;0.95;0.90;;;;;;;5.21;77.35;100748.64;1901894;75;21149;-61
2022/04/13 19:54:51;;;;;;;0.50;0.50;;;;;;;5.23;77.32;100755.54;1902035;75;21075;-61
2022/04/13 19:57:20;;;;;;;0.40;0.40;;;;;;;5.26;77.31;100737.68;1901876;75;21117;-61
2022/04/13 19:59:48;;;;;;;0.90;0.42;;;;;;;5.30;77.65;100748.48;1902030;75;21474;-61
2022/04/13 20:02:17;;;;;;;0.65;0.30;;;;;;;5.34;77.50;100755.36;1901836;75;21040;-60
2022/04/13 20:04:46;;;;;;;0.40;0.40;;;;;;;5.37;77.63;100754.02;1901921;75;21036;-62
2022/04/13 20:07:15;;;;;;;0.53;0.53;;;;;;;5.39;78.06;100742.24;1901928;75;21040;-61
2022/04/13 20:09:44;;;;;;;0.50;0.50;;;;;;;5.43;78.19;100733.91;1901995;75;21544;-61
2022/04/13 20:12:13;;;;;;;1.40;0.45;;;;;;;5.46;78.03;100748.20;1902093;75;21019;-61
2022/04/13 20:14:41;;;;;;;4.03;0.60;;;;;;;5.48;78.08;100755.14;1901909;75;21631;-61
2022/04/13 20:17:10;;;;;;;0.45;0.45;;;;;;;5.43;78.21;100759.58;1901940;75;21109;-61
2022/04/13 20:19:38;;;;;;;0.47;0.45;;;;;;;5.40;78.27;100754.39;1901994;75;21039;-61
2022/04/13 20:22:07;;;;;;;0.50;0.50;;;;;;;5.41;78.05;100742.63;1901932;75;21105;-61
2022/04/13 20:24:36;;;;;;;0.40;0.40;;;;;;;5.44;77.84;100736.92;1901853;75;21178;-61
2022/04/13 20:27:06;;;;;;;1.52;0.53;;;;;;;5.44;77.83;100742.14;1902005;75;21075;-61
2022/04/13 20:29:35;;;;;;;0.53;0.40;;;;;;;5.43;77.84;100742.60;1901947;75;21039;-61
2022/04/13 20:32:06;;;;;;;0.40;0.40;;;;;;;5.43;77.83;100745.66;1901968;75;21528;-61
2022/04/13 20:34:35;;;;;;;0.70;0.50;;;;;;;5.44;77.69;100736.92;1902007;75;21031;-61
2022/04/13 20:37:06;;;;;;;0.82;0.60;;;;;;;5.44;77.75;100740.84;1901960;75;21039;-61
2022/04/13 20:39:34;;;;;;;1.00;0.60;;;;;;;5.45;77.86;100720.38;1901976;75;21540;-60
2022/04/13 20:42:04;;;;;;;0.57;0.50;;;;;;;5.45;77.80;100742.58;1901902;75;21008;-60
2022/04/13 20:44:34;;;;;;;0.40;0.40;;;;;;;5.43;77.92;100732.16;1901824;75;21036;-62
2022/04/13 20:47:04;;;;;;;0.40;0.40;;;;;;;5.41;77.96;100733.94;1901983;75;21101;-61
2022/04/13 20:49:34;;;;;;;0.40;0.40;;;;;;;5.40;77.93;100699.55;1902039;75;21012;-61
2022/04/13 20:52:03;;;;;;;2.45;0.82;;;;;;;5.41;78.03;100716.51;1901935;75;21035;-61
2022/04/13 20:54:31;;;;;;;0.72;0.47;;;;;;;5.39;78.20;100734.41;1901969;75;21585;-61
2022/04/13 20:57:00;;;;;;;2.37;0.70;;;;;;;5.38;78.31;100711.33;1901849;75;21176;-61
2022/04/13 20:59:29;;;;;;;4.15;0.65;;;;;;;5.37;78.35;100704.41;1901903;75;21092;-61
2022/04/13 21:01:57;;;;;;;0.40;0.40;;;;;;;5.37;78.51;100708.32;1901919;75;21032;-61
2022/04/13 21:04:26;;;;;;;0.42;0.40;;;;;;;5.32;78.59;100721.89;1902032;75;21024;-61
2022/04/13 21:06:54;;;;;;;1.98;0.95;;;;;;;5.26;78.76;100682.86;1901951;75;21040;-61
2022/04/13 21:09:24;;;;;;;0.98;0.80;;;;;;;5.25;78.81;100716.81;1901894;75;21117;-62
2022/04/13 21:11:53;;;;;;;1.52;0.55;;;;;;;5.25;78.88;100709.83;1901992;75;21035;-61
2022/04/13 21:14:22;;;;;;;1.47;0.57;;;;;;;5.25;79.12;100698.09;1901966;75;21063;-61
2022/04/13 21:16:51;;;;;;;1.05;0.50;;;;;;;5.25;79.11;100664.15;1902135;75;21052;-61
2022/04/13 21:19:21;;;;;;;0.40;0.40;;;;;;;5.26;79.00;100670.25;1902164;75;21145;-61
2022/04/13 21:21:50;;;;;;;0.47;0.47;;;;;;;5.28;78.80;100698.04;1901995;75;21036;-61
2022/04/13 21:24:18;;;;;;;1.07;0.50;;;;;;;5.30;78.76;100635.36;1904856;75;21064;-61
2022/04/13 21:26:47;;;;;;;0.50;0.50;;;;;;;5.30;78.63;100688.43;1909121;75;21039;-60
2022/04/13 21:29:16;;;;;;;1.07;0.40;;;;;;;5.31;78.55;100674.50;1909175;75;21475;-61
2022/04/13 21:31:45;;;;;;;0.40;0.40;;;;;;;5.31;78.79;100677.11;1909167;75;21121;-61
2022/04/13 21:34:14;;;;;;;0.57;0.57;;;;;;;5.30;79.02;100677.98;1909148;75;21564;-61
2022/04/13 21:36:43;;;;;;;1.62;0.60;;;;;;;5.27;79.13;100680.64;1909277;75;21101;-62
2022/04/13 21:39:11;;;;;;;1.45;0.70;;;;;;;5.27;79.54;100669.34;1909163;75;21062;-61
2022/04/13 21:41:40;;;;;;;0.40;0.40;;;;;;;5.25;79.46;100670.67;1909156;75;21121;-61
2022/04/13 21:44:08;;;;;;;1.65;0.78;;;;;;;5.26;79.39;100671.11;1909178;75;21036;-61
2022/04/13 21:46:37;;;;;;;0.78;0.65;;;;;;;5.28;79.41;100657.58;1909196;75;21101;-61
2022/04/13 21:49:06;;;;;;;1.07;0.53;;;;;;;5.30;79.34;100640.58;1909187;75;21028;-62
2022/04/13 21:51:34;;;;;;;2.02;0.60;;;;;;;5.31;79.33;100652.31;1909251;75;21028;-61
2022/04/13 21:54:04;;;;;;;0.47;0.20;;;;;;;5.31;79.53;100657.53;1909182;75;21105;-61
2022/04/13 21:56:33;;;;;;;0.40;0.35;;;;;;;5.31;79.35;100650.12;1909256;75;21044;-61
2022/04/13 21:59:02;;;;;;;0.30;0.30;;;;;;;5.30;79.23;100642.73;1909290;75;21039;-61
2022/04/13 22:01:30;;;;;;;0.98;0.50;;;;;;;5.33;79.05;100635.28;1909390;75;21039;-61
2022/04/13 22:03:59;;;;;;;0.70;0.30;;;;;;;5.33;79.10;100598.30;1909152;75;21031;-61
2022/04/13 22:06:27;;;;;;;0.30;0.30;;;;;;;5.35;79.18;100615.25;1909191;75;21039;-61
2022/04/13 22:08:56;;;;;;;0.40;0.40;;;;;;;5.38;79.23;100620.39;1909246;75;21122;-61
2022/04/13 22:11:27;;;;;;;0.72;0.47;;;;;;;5.39;79.51;100615.15;1909224;75;21074;-60
2022/04/13 22:13:55;;;;;;;0.60;0.60;;;;;;;5.40;79.58;100623.41;1909289;75;21008;-61
2022/04/13 22:16:24;;;;;;;1.85;0.45;;;;;;;5.45;79.58;100621.15;1909016;75;21063;-60
2022/04/13 22:18:53;;;;;;;0.60;0.50;;;;;;;5.46;79.42;100622.84;1909145;75;21180;-61
2022/04/13 22:21:22;;;;;;;1.50;0.50;;;;;;;5.48;79.21;100628.90;1909118;75;21561;-61
2022/04/13 22:23:51;;;;;;;1.50;0.50;;;;;;;5.49;79.18;100608.44;1910464;74;21126;-60
2022/04/13 22:26:19;;;;;;;1.30;0.30;;;;;;;5.50;79.10;100581.44;1908782;74;21055;-60
2022/04/13 22:28:48;;;;;;;0.47;0.47;;;;;;;5.49;78.88;100586.23;1903463;74;21139;-62
2022/04/13 22:31:17;;;;;;;0.17;0.17;;;;;;;5.48;78.82;100555.35;1927988;74;21110;-61
2022/04/13 22:33:46;;;;;;;0.40;0.40;;;;;;;5.46;78.52;100568.01;1935417;74;21114;-61
2022/04/13 22:36:15;;;;;;;1.72;0.60;;;;;;;5.43;78.56;100589.84;1912446;74;21064;-60
2022/04/13 22:38:45;;;;;;;0.40;0.40;;;;;;;5.43;78.47;100608.57;1905074;75;21044;-64
2022/04/13 22:41:14;;;;;;;0.65;0.40;;;;;;;5.41;78.58;100589.86;1904972;75;21542;-64
2022/04/13 22:43:42;;;;;;;0.40;0.40;;;;;;;5.43;78.69;100565.48;1904001;74;21009;-65
2022/04/13 22:46:12;;;;;;;1.77;0.40;;;;;;;5.43;78.65;100492.37;1904906;74;21094;-65
2022/04/13 22:48:40;;;;;;;1.10;0.60;;;;;;;5.44;78.47;100555.44;1902721;75;20997;-66
2022/04/13 22:51:09;;;;;;;0.30;0.30;;;;;;;5.46;78.62;100544.09;1908735;74;21204;-65
2022/04/13 22:53:37;;;;;;;0.60;0.50;;;;;;;5.47;78.50;100567.98;1915175;74;21051;-63
2022/04/13 22:56:06;;;;;;;1.92;0.55;;;;;;;5.51;78.70;100576.61;1908521;74;21114;-66
2022/04/13 22:58:35;;;;;;;0.30;0.30;;;;;;;5.55;78.70;100465.95;1917009;74;21074;-69
2022/04/13 23:01:03;;;;;;;0.30;0.30;;;;;;;5.57;78.46;100521.63;1912368;74;21073;-67
2022/04/13 23:03:32;;;;;;;0.50;0.40;;;;;;;5.60;78.50;100571.20;1905005;74;21120;-66
2022/04/13 23:06:01;;;;;;;3.20;0.50;;;;;;;5.58;78.57;100542.95;1902890;74;21059;-66
2022/04/13 23:08:30;;;;;;;7.35;0.55;;;;;;;5.58;78.29;100532.50;1901880;75;21565;-65
2022/04/13 23:10:59;;;;;;;1.47;0.72;;;;;;;5.60;78.27;100567.28;1902470;74;21142;-65
2022/04/13 23:13:29;;;;;;;1.00;0.45;;;;;;;5.58;78.41;100545.56;1918224;74;21016;-66
2022/04/13 23:15:57;;;;;;;0.50;0.50;;;;;;;5.56;78.71;100556.04;1908294;74;21111;-64
2022/04/13 23:18:26;;;;;;;0.25;0.25;;;;;;;5.54;78.82;100545.22;1903338;75;21224;-64
2022/04/13 23:20:55;;;;;;;0.40;0.40;;;;;;;5.55;78.94;100555.64;1902160;74;21020;-65
2022/04/13 23:23:23;;;;;;;0.82;0.40;;;;;;;5.57;79.12;100544.71;1904911;74;21078;-65
2022/04/13 23:25:52;;;;;;;0.40;0.40;;;;;;;5.57;79.19;100530.77;1902103;75;21067;-63
2022/04/13 23:28:21;;;;;;;2.50;0.70;;;;;;;5.57;79.36;100550.36;1904371;74;21032;-66
2022/04/13 23:30:49;;;;;;;3.83;0.50;;;;;;;5.57;79.21;100559.08;1906402;74;21085;-65
2022/04/13 23:33:18;;;;;;;0.55;0.50;;;;;;;5.58;79.27;100476.34;1904268;74;21188;-64
2022/04/13 23:35:47;;;;;;;1.30;0.40;;;;;;;5.58;79.28;100560.78;1903579;75;21032;-64
2022/04/13 23:38:15;;;;;;;0.40;0.40;;;;;;;5.56;79.21;100573.47;1923079;74;21032;-63
2022/04/13 23:40:44;;;;;;;2.15;0.50;;;;;;;5.53;79.12;100535.66;1902093;74;21063;-63
2022/04/13 23:43:13;;;;;;;0.50;0.50;;;;;;;5.52;79.06;100566.59;1904800;74;21069;-64
2022/04/13 23:45:41;;;;;;;1.12;0.70;;;;;;;5.49;78.90;100517.03;1905767;74;21120;-61
2022/04/13 23:48:10;;;;;;;0.40;0.40;;;;;;;5.48;78.78;100533.58;1904268;75;21211;-71
2022/04/13 23:50:39;;;;;;;0.35;0.33;;;;;;;5.46;78.87;100540.16;1905715;74;21040;-66
2022/04/13 23:53:07;;;;;;;1.60;0.88;;;;;;;5.46;79.04;100545.39;1909165;74;21037;-73
2022/04/13 23:55:36;;;;;;;0.60;0.40;;;;;;;5.47;79.31;100530.57;1904945;74;21102;-72
2022/04/13 23:58:05;;;;;;;0.60;0.50;;;;;;;5.47;79.48;100564.52;1906560;74;21088;-71
